Osan Air Base

RKSO | OSN

, Gyeonggi-do , Korea

Monday, January 27th, 2020 | 09:58

Weather

RKSO 262358Z 04014KT 7SM BKN050 OVC110 06/M03 A3015 RMK AO2A SLP213 T00641034 10064 20059 55003 $

Charts

No Charts Available

Gates

189 Available

Runways

2 Available

Events

No events for this airport


New event